Archer, Wyoming
Current Conditions -  °F | °C
As of 7:53 AM on Tuesday 21 Oct 2014 (Local Time) from KCYS Reporting Station
Overcast Overcast  
Wind Chill: 48°   Ceiling: 11000
Heat Index: 48°   Visibility: 10mi
Dew Point: 36°   Wind: 3mph
Humidity: 63%   Direction: 220°SW
Pressure: 30.05"   Gusts: NA
Location:  41.4091°N, 104.861°W
Report Text: KCYS 211353Z 22003KT 10SM OVC110 09/02 A3005 RMK AO2 SLP129 T00890022
Loading
Personal Weather Stations






























Interactive Weather Map
Tropical Storm Tracking
New forecast layout! Learn more

10-Day Weather Forecast

Advertisements
Track Severe Weather on mobile